sensor_id;sensor_type;location;lat;lon;timestamp;temperature;humidity
1704;DHT22;849;48.780;9.216;2023-06-24T00:01:00;22.20;84.20
1704;DHT22;849;48.780;9.216;2023-06-24T00:03:31;22.20;84.30
1704;DHT22;849;48.780;9.216;2023-06-24T00:06:02;22.20;84.20
1704;DHT22;849;48.780;9.216;2023-06-24T00:08:33;22.10;84.70
1704;DHT22;849;48.780;9.216;2023-06-24T00:11:07;22.00;85.00
1704;DHT22;849;48.780;9.216;2023-06-24T00:13:42;21.90;85.90
1704;DHT22;849;48.780;9.216;2023-06-24T00:16:13;21.90;85.70
1704;DHT22;849;48.780;9.216;2023-06-24T00:18:43;22.00;85.20
1704;DHT22;849;48.780;9.216;2023-06-24T00:21:14;22.00;85.10
1704;DHT22;849;48.780;9.216;2023-06-24T00:23:47;22.00;85.40
1704;DHT22;849;48.780;9.216;2023-06-24T00:26:19;21.80;85.90
1704;DHT22;849;48.780;9.216;2023-06-24T00:28:50;21.70;86.20
1704;DHT22;849;48.780;9.216;2023-06-24T00:31:21;21.80;86.40
1704;DHT22;849;48.780;9.216;2023-06-24T00:33:52;21.80;86.50
1704;DHT22;849;48.780;9.216;2023-06-24T00:36:23;21.70;86.40
1704;DHT22;849;48.780;9.216;2023-06-24T00:38:55;21.70;86.50
1704;DHT22;849;48.780;9.216;2023-06-24T00:41:27;21.60;86.50
1704;DHT22;849;48.780;9.216;2023-06-24T00:43:58;21.50;87.10
1704;DHT22;849;48.780;9.216;2023-06-24T00:46:29;21.50;87.70
1704;DHT22;849;48.780;9.216;2023-06-24T00:49:02;21.60;88.10
1704;DHT22;849;48.780;9.216;2023-06-24T00:51:33;21.50;87.70
1704;DHT22;849;48.780;9.216;2023-06-24T00:54:06;21.50;88.20
1704;DHT22;849;48.780;9.216;2023-06-24T00:56:37;21.50;87.90
1704;DHT22;849;48.780;9.216;2023-06-24T00:59:15;21.50;87.80
1704;DHT22;849;48.780;9.216;2023-06-24T01:01:46;21.50;87.90
1704;DHT22;849;48.780;9.216;2023-06-24T01:04:17;21.40;88.50
1704;DHT22;849;48.780;9.216;2023-06-24T01:06:48;21.30;89.10
1704;DHT22;849;48.780;9.216;2023-06-24T01:09:20;21.30;88.90
1704;DHT22;849;48.780;9.216;2023-06-24T01:11:51;21.20;89.50
1704;DHT22;849;48.780;9.216;2023-06-24T01:14:22;21.10;89.40
1704;DHT22;849;48.780;9.216;2023-06-24T01:17:12;21.10;89.90
1704;DHT22;849;48.780;9.216;2023-06-24T01:22:31;21.10;90.20
1704;DHT22;849;48.780;9.216;2023-06-24T01:28:07;20.90;90.50
1704;DHT22;849;48.780;9.216;2023-06-24T01:36:43;20.80;91.10
1704;DHT22;849;48.780;9.216;2023-06-24T01:39:18;20.70;91.20
1704;DHT22;849;48.780;9.216;2023-06-24T01:42:00;20.70;91.50
1704;DHT22;849;48.780;9.216;2023-06-24T01:44:35;20.60;91.60
1704;DHT22;849;48.780;9.216;2023-06-24T01:47:07;20.70;91.90
1704;DHT22;849;48.780;9.216;2023-06-24T01:49:41;20.70;91.80
1704;DHT22;849;48.780;9.216;2023-06-24T01:52:13;20.70;91.80
1704;DHT22;849;48.780;9.216;2023-06-24T01:54:46;20.80;91.80
1704;DHT22;849;48.780;9.216;2023-06-24T01:57:18;20.90;91.80
1704;DHT22;849;48.780;9.216;2023-06-24T01:59:53;20.80;91.70
1704;DHT22;849;48.780;9.216;2023-06-24T02:02:26;20.90;91.80
1704;DHT22;849;48.780;9.216;2023-06-24T02:04:57;20.80;91.70
1704;DHT22;849;48.780;9.216;2023-06-24T02:07:29;20.70;92.00
1704;DHT22;849;48.780;9.216;2023-06-24T02:10:00;20.80;92.10
1704;DHT22;849;48.780;9.216;2023-06-24T02:12:32;20.80;92.10
1704;DHT22;849;48.780;9.216;2023-06-24T02:15:05;20.80;92.30
1704;DHT22;849;48.780;9.216;2023-06-24T02:17:38;20.80;92.30
1704;DHT22;849;48.780;9.216;2023-06-24T02:20:10;20.60;92.40
1704;DHT22;849;48.780;9.216;2023-06-24T02:22:41;20.70;92.50
1704;DHT22;849;48.780;9.216;2023-06-24T02:25:13;20.60;92.60
1704;DHT22;849;48.780;9.216;2023-06-24T02:27:44;20.50;92.90
1704;DHT22;849;48.780;9.216;2023-06-24T02:30:15;20.40;92.90
1704;DHT22;849;48.780;9.216;2023-06-24T02:32:46;20.50;92.90
1704;DHT22;849;48.780;9.216;2023-06-24T02:35:17;20.50;93.10
1704;DHT22;849;48.780;9.216;2023-06-24T02:37:48;20.40;93.30
1704;DHT22;849;48.780;9.216;2023-06-24T02:40:19;20.50;93.50
1704;DHT22;849;48.780;9.216;2023-06-24T02:42:50;20.40;93.10
1704;DHT22;849;48.780;9.216;2023-06-24T02:45:21;20.40;93.40
1704;DHT22;849;48.780;9.216;2023-06-24T02:47:52;20.40;93.50
1704;DHT22;849;48.780;9.216;2023-06-24T02:50:25;20.30;93.80
1704;DHT22;849;48.780;9.216;2023-06-24T02:52:57;20.30;93.90
1704;DHT22;849;48.780;9.216;2023-06-24T02:55:29;20.30;93.90
1704;DHT22;849;48.780;9.216;2023-06-24T02:58:01;20.30;93.90
1704;DHT22;849;48.780;9.216;2023-06-24T03:00:32;20.30;94.00
1704;DHT22;849;48.780;9.216;2023-06-24T03:03:05;20.30;94.00
1704;DHT22;849;48.780;9.216;2023-06-24T03:05:37;20.30;93.90
1704;DHT22;849;48.780;9.216;2023-06-24T03:08:08;20.30;94.10
1704;DHT22;849;48.780;9.216;2023-06-24T03:10:39;20.20;94.30
1704;DHT22;849;48.780;9.216;2023-06-24T03:13:10;20.30;94.30
1704;DHT22;849;48.780;9.216;2023-06-24T03:15:41;20.30;94.10
1704;DHT22;849;48.780;9.216;2023-06-24T03:18:12;20.30;94.40
1704;DHT22;849;48.780;9.216;2023-06-24T03:20:43;20.30;94.40
1704;DHT22;849;48.780;9.216;2023-06-24T03:23:14;20.20;94.50
1704;DHT22;849;48.780;9.216;2023-06-24T03:25:44;20.20;94.80
1704;DHT22;849;48.780;9.216;2023-06-24T03:28:10;20.20;94.70
1704;DHT22;849;48.780;9.216;2023-06-24T03:30:37;20.10;94.60
1704;DHT22;849;48.780;9.216;2023-06-24T03:33:07;20.00;94.90
1704;DHT22;849;48.780;9.216;2023-06-24T03:35:38;19.90;95.10
1704;DHT22;849;48.780;9.216;2023-06-24T03:38:09;19.80;95.80
1704;DHT22;849;48.780;9.216;2023-06-24T03:40:40;19.90;96.00
1704;DHT22;849;48.780;9.216;2023-06-24T03:43:10;19.90;96.10
1704;DHT22;849;48.780;9.216;2023-06-24T03:45:41;19.90;96.20
1704;DHT22;849;48.780;9.216;2023-06-24T03:48:07;20.00;95.80
1704;DHT22;849;48.780;9.216;2023-06-24T03:50:38;19.90;96.10
1704;DHT22;849;48.780;9.216;2023-06-24T03:53:09;20.00;96.40
1704;DHT22;849;48.780;9.216;2023-06-24T03:55:40;20.00;96.30
1704;DHT22;849;48.780;9.216;2023-06-24T03:58:11;20.10;96.50
1704;DHT22;849;48.780;9.216;2023-06-24T04:00:42;20.00;97.00
1704;DHT22;849;48.780;9.216;2023-06-24T04:03:13;20.10;96.80
1704;DHT22;849;48.780;9.216;2023-06-24T04:05:45;20.10;97.10
1704;DHT22;849;48.780;9.216;2023-06-24T04:08:15;20.10;97.20
1704;DHT22;849;48.780;9.216;2023-06-24T04:10:46;20.10;98.00
1704;DHT22;849;48.780;9.216;2023-06-24T04:13:17;20.10;98.30
1704;DHT22;849;48.780;9.216;2023-06-24T04:15:48;20.10;98.00
1704;DHT22;849;48.780;9.216;2023-06-24T04:18:19;20.10;98.30
1704;DHT22;849;48.780;9.216;2023-06-24T04:20:50;20.20;98.80
1704;DHT22;849;48.780;9.216;2023-06-24T04:23:21;20.30;99.00
1704;DHT22;849;48.780;9.216;2023-06-24T04:25:52;20.40;98.90
1704;DHT22;849;48.780;9.216;2023-06-24T04:28:23;20.40;99.20
1704;DHT22;849;48.780;9.216;2023-06-24T04:30:54;20.40;99.30
1704;DHT22;849;48.780;9.216;2023-06-24T04:33:25;20.40;99.60
1704;DHT22;849;48.780;9.216;2023-06-24T04:35:55;20.50;99.60
1704;DHT22;849;48.780;9.216;2023-06-24T04:38:26;20.50;99.60
1704;DHT22;849;48.780;9.216;2023-06-24T04:40:57;20.40;99.80
1704;DHT22;849;48.780;9.216;2023-06-24T04:43:29;20.50;99.90
1704;DHT22;849;48.780;9.216;2023-06-24T04:46:00;20.60;99.90
1704;DHT22;849;48.780;9.216;2023-06-24T04:48:31;20.60;99.90
1704;DHT22;849;48.780;9.216;2023-06-24T04:51:02;20.70;99.90
1704;DHT22;849;48.780;9.216;2023-06-24T04:53:33;20.70;99.90
1704;DHT22;849;48.780;9.216;2023-06-24T04:56:04;20.70;99.90
1704;DHT22;849;48.780;9.216;2023-06-24T04:58:35;20.80;99.90
1704;DHT22;849;48.780;9.216;2023-06-24T05:01:05;20.80;99.90
1704;DHT22;849;48.780;9.216;2023-06-24T05:03:36;20.90;99.90
1704;DHT22;849;48.780;9.216;2023-06-24T05:06:07;20.90;99.90
1704;DHT22;849;48.780;9.216;2023-06-24T05:08:38;20.90;99.90
1704;DHT22;849;48.780;9.216;2023-06-24T05:11:09;21.00;99.90
1704;DHT22;849;48.780;9.216;2023-06-24T05:13:40;20.90;99.90
1704;DHT22;849;48.780;9.216;2023-06-24T05:16:11;20.80;99.90
1704;DHT22;849;48.780;9.216;2023-06-24T05:18:43;20.50;99.90
1704;DHT22;849;48.780;9.216;2023-06-24T05:21:14;20.20;99.90
1704;DHT22;849;48.780;9.216;2023-06-24T05:23:45;20.00;99.90
1704;DHT22;849;48.780;9.216;2023-06-24T05:26:15;19.90;99.90
1704;DHT22;849;48.780;9.216;2023-06-24T05:28:46;19.90;99.90
1704;DHT22;849;48.780;9.216;2023-06-24T05:31:17;20.20;99.90
1704;DHT22;849;48.780;9.216;2023-06-24T05:33:49;20.40;99.90
1704;DHT22;849;48.780;9.216;2023-06-24T05:36:19;20.40;99.90
1704;DHT22;849;48.780;9.216;2023-06-24T05:38:50;20.60;99.90
1704;DHT22;849;48.780;9.216;2023-06-24T05:41:21;20.60;99.90
1704;DHT22;849;48.780;9.216;2023-06-24T05:44:12;20.50;99.90
1704;DHT22;849;48.780;9.216;2023-06-24T05:46:43;20.50;99.90
1704;DHT22;849;48.780;9.216;2023-06-24T05:49:14;20.60;99.90
1704;DHT22;849;48.780;9.216;2023-06-24T05:51:45;20.70;99.90
1704;DHT22;849;48.780;9.216;2023-06-24T05:54:16;20.90;99.90
1704;DHT22;849;48.780;9.216;2023-06-24T05:56:47;20.90;99.90
1704;DHT22;849;48.780;9.216;2023-06-24T05:59:17;20.80;99.90
1704;DHT22;849;48.780;9.216;2023-06-24T06:01:48;20.80;99.90
1704;DHT22;849;48.780;9.216;2023-06-24T06:04:19;20.60;99.90
1704;DHT22;849;48.780;9.216;2023-06-24T06:06:50;20.50;99.90
1704;DHT22;849;48.780;9.216;2023-06-24T06:09:22;20.40;99.90
1704;DHT22;849;48.780;9.216;2023-06-24T06:11:53;20.30;99.90
1704;DHT22;849;48.780;9.216;2023-06-24T06:14:23;20.30;99.90
1704;DHT22;849;48.780;9.216;2023-06-24T06:16:54;20.20;99.90
1704;DHT22;849;48.780;9.216;2023-06-24T06:19:25;20.40;99.90
1704;DHT22;849;48.780;9.216;2023-06-24T06:21:56;20.40;99.90
1704;DHT22;849;48.780;9.216;2023-06-24T06:24:27;20.30;99.90
1704;DHT22;849;48.780;9.216;2023-06-24T06:26:58;20.40;99.90
1704;DHT22;849;48.780;9.216;2023-06-24T06:29:29;20.50;99.90
1704;DHT22;849;48.780;9.216;2023-06-24T06:32:00;20.70;99.90
1704;DHT22;849;48.780;9.216;2023-06-24T06:34:31;20.70;99.90
1704;DHT22;849;48.780;9.216;2023-06-24T06:37:01;20.70;99.90
1704;DHT22;849;48.780;9.216;2023-06-24T06:39:32;20.70;99.90
1704;DHT22;849;48.780;9.216;2023-06-24T06:42:03;20.60;99.90
1704;DHT22;849;48.780;9.216;2023-06-24T06:44:34;20.80;99.10
1704;DHT22;849;48.780;9.216;2023-06-24T06:47:05;21.00;97.80
1704;DHT22;849;48.780;9.216;2023-06-24T06:49:36;21.20;97.20
1704;DHT22;849;48.780;9.216;2023-06-24T06:52:07;21.20;96.70
1704;DHT22;849;48.780;9.216;2023-06-24T06:54:38;21.20;95.40
1704;DHT22;849;48.780;9.216;2023-06-24T06:57:09;21.20;95.70
1704;DHT22;849;48.780;9.216;2023-06-24T06:59:39;21.30;96.10
1704;DHT22;849;48.780;9.216;2023-06-24T07:02:10;21.30;95.10
1704;DHT22;849;48.780;9.216;2023-06-24T07:04:41;21.60;95.00
1704;DHT22;849;48.780;9.216;2023-06-24T07:07:12;21.60;94.30
1704;DHT22;849;48.780;9.216;2023-06-24T07:09:43;21.60;94.70
1704;DHT22;849;48.780;9.216;2023-06-24T07:12:14;22.00;94.70
1704;DHT22;849;48.780;9.216;2023-06-24T07:14:44;21.90;93.70
1704;DHT22;849;48.780;9.216;2023-06-24T07:17:15;21.90;93.40
1704;DHT22;849;48.780;9.216;2023-06-24T07:19:46;22.20;93.10
1704;DHT22;849;48.780;9.216;2023-06-24T07:22:16;22.20;92.80
1704;DHT22;849;48.780;9.216;2023-06-24T07:24:47;22.10;92.30
1704;DHT22;849;48.780;9.216;2023-06-24T07:27:18;21.90;91.90
1704;DHT22;849;48.780;9.216;2023-06-24T07:29:49;21.70;92.30
1704;DHT22;849;48.780;9.216;2023-06-24T07:32:20;21.80;93.30
1704;DHT22;849;48.780;9.216;2023-06-24T07:34:50;22.10;92.00
1704;DHT22;849;48.780;9.216;2023-06-24T07:37:21;22.30;91.60
1704;DHT22;849;48.780;9.216;2023-06-24T07:39:52;22.20;91.80
1704;DHT22;849;48.780;9.216;2023-06-24T07:42:23;22.10;92.20
1704;DHT22;849;48.780;9.216;2023-06-24T07:44:53;22.20;91.50
1704;DHT22;849;48.780;9.216;2023-06-24T07:47:24;22.10;91.20
1704;DHT22;849;48.780;9.216;2023-06-24T07:49:55;22.30;91.60
1704;DHT22;849;48.780;9.216;2023-06-24T07:52:26;22.10;91.00
1704;DHT22;849;48.780;9.216;2023-06-24T07:54:57;22.50;91.00
1704;DHT22;849;48.780;9.216;2023-06-24T07:57:28;22.50;90.60
1704;DHT22;849;48.780;9.216;2023-06-24T07:59:58;22.50;90.50
1704;DHT22;849;48.780;9.216;2023-06-24T08:02:29;22.50;91.20
1704;DHT22;849;48.780;9.216;2023-06-24T08:05:00;22.90;90.20
1704;DHT22;849;48.780;9.216;2023-06-24T08:07:31;22.50;88.80
1704;DHT22;849;48.780;9.216;2023-06-24T08:10:02;22.70;90.40
1704;DHT22;849;48.780;9.216;2023-06-24T08:12:32;22.60;88.50
1704;DHT22;849;48.780;9.216;2023-06-24T08:15:04;22.80;90.60
1704;DHT22;849;48.780;9.216;2023-06-24T08:17:35;22.70;89.30
1704;DHT22;849;48.780;9.216;2023-06-24T08:20:09;22.60;90.50
1704;DHT22;849;48.780;9.216;2023-06-24T08:22:40;22.50;90.00
1704;DHT22;849;48.780;9.216;2023-06-24T08:25:11;22.50;88.90
1704;DHT22;849;48.780;9.216;2023-06-24T08:27:42;22.60;90.20
1704;DHT22;849;48.780;9.216;2023-06-24T08:30:16;22.80;90.60
1704;DHT22;849;48.780;9.216;2023-06-24T08:32:48;22.80;89.70
1704;DHT22;849;48.780;9.216;2023-06-24T08:35:19;23.10;89.70
1704;DHT22;849;48.780;9.216;2023-06-24T08:37:50;23.30;89.10
1704;DHT22;849;48.780;9.216;2023-06-24T08:40:21;23.20;86.30
1704;DHT22;849;48.780;9.216;2023-06-24T08:42:51;23.20;87.30
1704;DHT22;849;48.780;9.216;2023-06-24T08:45:22;23.10;86.50
1704;DHT22;849;48.780;9.216;2023-06-24T08:47:54;23.30;86.60
1704;DHT22;849;48.780;9.216;2023-06-24T08:50:28;23.10;85.80
1704;DHT22;849;48.780;9.216;2023-06-24T08:53:03;23.00;87.90
1704;DHT22;849;48.780;9.216;2023-06-24T08:55:40;23.00;87.20
1704;DHT22;849;48.780;9.216;2023-06-24T08:58:13;23.10;88.20
1704;DHT22;849;48.780;9.216;2023-06-24T09:00:44;23.20;88.00
1704;DHT22;849;48.780;9.216;2023-06-24T09:03:16;23.50;81.60
1704;DHT22;849;48.780;9.216;2023-06-24T09:05:46;23.50;80.00
1704;DHT22;849;48.780;9.216;2023-06-24T09:08:19;23.60;74.10
1704;DHT22;849;48.780;9.216;2023-06-24T09:10:54;23.40;72.00
1704;DHT22;849;48.780;9.216;2023-06-24T09:13:34;23.30;74.70
1704;DHT22;849;48.780;9.216;2023-06-24T09:16:14;23.20;75.60
1704;DHT22;849;48.780;9.216;2023-06-24T09:18:49;23.30;77.80
1704;DHT22;849;48.780;9.216;2023-06-24T09:21:24;23.50;78.60
1704;DHT22;849;48.780;9.216;2023-06-24T09:23:57;23.50;75.40
1704;DHT22;849;48.780;9.216;2023-06-24T09:26:27;23.70;76.40
1704;DHT22;849;48.780;9.216;2023-06-24T09:29:00;23.60;72.80
1704;DHT22;849;48.780;9.216;2023-06-24T09:31:31;23.70;73.20
1704;DHT22;849;48.780;9.216;2023-06-24T09:34:01;23.50;74.30
1704;DHT22;849;48.780;9.216;2023-06-24T09:36:32;23.60;72.70
1704;DHT22;849;48.780;9.216;2023-06-24T09:39:06;23.40;76.60
1704;DHT22;849;48.780;9.216;2023-06-24T09:41:42;23.60;77.70
1704;DHT22;849;48.780;9.216;2023-06-24T09:44:13;23.80;76.50
1704;DHT22;849;48.780;9.216;2023-06-24T09:46:44;23.80;72.10
1704;DHT22;849;48.780;9.216;2023-06-24T09:49:15;23.80;72.50
1704;DHT22;849;48.780;9.216;2023-06-24T09:51:49;23.90;73.90
1704;DHT22;849;48.780;9.216;2023-06-24T09:54:20;24.10;78.20
1704;DHT22;849;48.780;9.216;2023-06-24T09:56:52;24.10;74.00
1704;DHT22;849;48.780;9.216;2023-06-24T09:59:24;24.00;73.70
1704;DHT22;849;48.780;9.216;2023-06-24T10:01:56;23.90;74.60
1704;DHT22;849;48.780;9.216;2023-06-24T10:04:28;24.10;76.60
1704;DHT22;849;48.780;9.216;2023-06-24T10:07:00;23.80;72.20
1704;DHT22;849;48.780;9.216;2023-06-24T10:09:31;23.60;71.50
1704;DHT22;849;48.780;9.216;2023-06-24T10:12:02;23.50;69.70
1704;DHT22;849;48.780;9.216;2023-06-24T10:14:33;23.70;71.80
1704;DHT22;849;48.780;9.216;2023-06-24T10:17:04;23.50;72.80
1704;DHT22;849;48.780;9.216;2023-06-24T10:19:38;23.40;72.50
1704;DHT22;849;48.780;9.216;2023-06-24T10:22:10;23.60;76.40
1704;DHT22;849;48.780;9.216;2023-06-24T10:24:42;23.90;75.50
1704;DHT22;849;48.780;9.216;2023-06-24T10:27:21;24.00;72.30
1704;DHT22;849;48.780;9.216;2023-06-24T10:29:53;24.10;66.40
1704;DHT22;849;48.780;9.216;2023-06-24T10:32:26;24.00;65.00
1704;DHT22;849;48.780;9.216;2023-06-24T10:34:57;24.20;63.70
1704;DHT22;849;48.780;9.216;2023-06-24T10:37:32;24.20;67.10
1704;DHT22;849;48.780;9.216;2023-06-24T10:40:04;24.50;63.30
1704;DHT22;849;48.780;9.216;2023-06-24T10:42:42;24.80;64.20
1704;DHT22;849;48.780;9.216;2023-06-24T10:45:16;24.60;63.40
1704;DHT22;849;48.780;9.216;2023-06-24T10:47:50;24.50;62.10
1704;DHT22;849;48.780;9.216;2023-06-24T10:50:23;24.50;65.40
1704;DHT22;849;48.780;9.216;2023-06-24T10:52:54;24.80;61.30
1704;DHT22;849;48.780;9.216;2023-06-24T10:55:28;25.00;63.70
1704;DHT22;849;48.780;9.216;2023-06-24T10:58:11;24.60;60.90
1704;DHT22;849;48.780;9.216;2023-06-24T11:00:43;24.50;61.60
1704;DHT22;849;48.780;9.216;2023-06-24T11:03:16;24.60;70.40
1704;DHT22;849;48.780;9.216;2023-06-24T11:05:48;24.60;64.10
1704;DHT22;849;48.780;9.216;2023-06-24T11:08:20;24.60;60.60
1704;DHT22;849;48.780;9.216;2023-06-24T11:10:51;24.90;60.70
1704;DHT22;849;48.780;9.216;2023-06-24T11:13:22;24.80;62.50
1704;DHT22;849;48.780;9.216;2023-06-24T11:15:59;24.90;60.70
1704;DHT22;849;48.780;9.216;2023-06-24T11:18:37;24.60;59.30
1704;DHT22;849;48.780;9.216;2023-06-24T11:21:09;24.40;60.30
1704;DHT22;849;48.780;9.216;2023-06-24T11:23:39;24.60;66.90
1704;DHT22;849;48.780;9.216;2023-06-24T11:26:10;24.90;60.40
1704;DHT22;849;48.780;9.216;2023-06-24T11:28:41;24.90;61.80
1704;DHT22;849;48.780;9.216;2023-06-24T11:31:07;25.00;59.80
1704;DHT22;849;48.780;9.216;2023-06-24T11:33:40;24.90;63.10
1704;DHT22;849;48.780;9.216;2023-06-24T11:36:11;24.90;67.60
1704;DHT22;849;48.780;9.216;2023-06-24T11:38:42;24.90;65.50
1704;DHT22;849;48.780;9.216;2023-06-24T11:41:14;24.80;60.40
1704;DHT22;849;48.780;9.216;2023-06-24T11:43:45;24.80;64.30
1704;DHT22;849;48.780;9.216;2023-06-24T11:46:26;24.70;58.20
1704;DHT22;849;48.780;9.216;2023-06-24T11:49:08;24.80;58.50
1704;DHT22;849;48.780;9.216;2023-06-24T11:51:46;25.00;62.90
1704;DHT22;849;48.780;9.216;2023-06-24T11:54:20;25.40;64.30
1704;DHT22;849;48.780;9.216;2023-06-24T11:56:51;25.50;62.00
1704;DHT22;849;48.780;9.216;2023-06-24T11:59:23;25.60;59.50
1704;DHT22;849;48.780;9.216;2023-06-24T12:01:57;25.80;57.80
1704;DHT22;849;48.780;9.216;2023-06-24T12:04:29;25.80;59.70
1704;DHT22;849;48.780;9.216;2023-06-24T12:07:00;26.10;60.70
1704;DHT22;849;48.780;9.216;2023-06-24T12:09:33;26.10;61.60
1704;DHT22;849;48.780;9.216;2023-06-24T12:12:04;26.10;61.10
1704;DHT22;849;48.780;9.216;2023-06-24T12:14:35;26.00;57.90
1704;DHT22;849;48.780;9.216;2023-06-24T12:17:05;25.90;57.40
1704;DHT22;849;48.780;9.216;2023-06-24T12:19:32;26.00;58.90
1704;DHT22;849;48.780;9.216;2023-06-24T12:22:03;26.00;58.10
1704;DHT22;849;48.780;9.216;2023-06-24T12:24:33;25.90;60.80
1704;DHT22;849;48.780;9.216;2023-06-24T12:27:00;26.20;60.70
1704;DHT22;849;48.780;9.216;2023-06-24T12:29:27;26.10;60.70
1704;DHT22;849;48.780;9.216;2023-06-24T12:31:58;26.20;62.60
1704;DHT22;849;48.780;9.216;2023-06-24T12:34:24;26.10;57.30
1704;DHT22;849;48.780;9.216;2023-06-24T12:36:50;26.30;61.60
1704;DHT22;849;48.780;9.216;2023-06-24T12:39:21;26.60;57.90
1704;DHT22;849;48.780;9.216;2023-06-24T12:41:52;26.60;61.80
1704;DHT22;849;48.780;9.216;2023-06-24T12:44:22;26.40;61.10
1704;DHT22;849;48.780;9.216;2023-06-24T12:46:53;26.40;58.90
1704;DHT22;849;48.780;9.216;2023-06-24T12:49:24;26.30;57.20
1704;DHT22;849;48.780;9.216;2023-06-24T12:51:55;26.50;57.20
1704;DHT22;849;48.780;9.216;2023-06-24T12:54:25;26.60;54.40
1704;DHT22;849;48.780;9.216;2023-06-24T12:56:56;26.30;54.60
1704;DHT22;849;48.780;9.216;2023-06-24T12:59:28;26.50;54.60
1704;DHT22;849;48.780;9.216;2023-06-24T13:01:58;26.40;53.70
1704;DHT22;849;48.780;9.216;2023-06-24T13:04:29;26.40;55.60
1704;DHT22;849;48.780;9.216;2023-06-24T13:07:00;26.30;53.40
1704;DHT22;849;48.780;9.216;2023-06-24T13:09:31;26.20;53.40
1704;DHT22;849;48.780;9.216;2023-06-24T13:11:57;26.40;54.70
1704;DHT22;849;48.780;9.216;2023-06-24T13:14:28;26.80;55.70
1704;DHT22;849;48.780;9.216;2023-06-24T13:16:58;26.80;53.70
1704;DHT22;849;48.780;9.216;2023-06-24T13:19:29;26.90;54.50
1704;DHT22;849;48.780;9.216;2023-06-24T13:22:00;26.80;51.50
1704;DHT22;849;48.780;9.216;2023-06-24T13:24:31;26.60;52.70
1704;DHT22;849;48.780;9.216;2023-06-24T13:27:02;26.50;51.50
1704;DHT22;849;48.780;9.216;2023-06-24T13:29:28;26.80;54.20
1704;DHT22;849;48.780;9.216;2023-06-24T13:31:59;26.90;54.40
1704;DHT22;849;48.780;9.216;2023-06-24T13:34:30;27.10;55.30
1704;DHT22;849;48.780;9.216;2023-06-24T13:37:01;27.40;54.30
1704;DHT22;849;48.780;9.216;2023-06-24T13:39:32;27.50;52.70
1704;DHT22;849;48.780;9.216;2023-06-24T13:42:03;27.60;54.80
1704;DHT22;849;48.780;9.216;2023-06-24T13:44:34;27.40;52.60
1704;DHT22;849;48.780;9.216;2023-06-24T13:47:05;27.20;53.00
1704;DHT22;849;48.780;9.216;2023-06-24T13:49:36;27.20;52.80
1704;DHT22;849;48.780;9.216;2023-06-24T13:52:07;27.00;52.70
1704;DHT22;849;48.780;9.216;2023-06-24T13:54:37;26.90;53.40
1704;DHT22;849;48.780;9.216;2023-06-24T13:57:08;27.00;53.90
1704;DHT22;849;48.780;9.216;2023-06-24T13:59:39;27.30;53.00
1704;DHT22;849;48.780;9.216;2023-06-24T14:02:10;27.30;53.30
1704;DHT22;849;48.780;9.216;2023-06-24T14:04:42;27.30;54.70
1704;DHT22;849;48.780;9.216;2023-06-24T14:07:13;27.70;55.90
1704;DHT22;849;48.780;9.216;2023-06-24T14:09:44;27.60;54.60
1704;DHT22;849;48.780;9.216;2023-06-24T14:12:15;27.60;52.90
1704;DHT22;849;48.780;9.216;2023-06-24T14:14:45;27.50;53.40
1704;DHT22;849;48.780;9.216;2023-06-24T14:17:16;27.40;54.00
1704;DHT22;849;48.780;9.216;2023-06-24T14:19:49;27.60;54.70
1704;DHT22;849;48.780;9.216;2023-06-24T14:22:20;27.60;53.00
1704;DHT22;849;48.780;9.216;2023-06-24T14:24:53;27.50;52.60
1704;DHT22;849;48.780;9.216;2023-06-24T14:27:23;27.50;53.80
1704;DHT22;849;48.780;9.216;2023-06-24T14:29:54;27.70;53.60
1704;DHT22;849;48.780;9.216;2023-06-24T14:32:25;27.60;52.30
1704;DHT22;849;48.780;9.216;2023-06-24T14:34:56;27.60;54.60
1704;DHT22;849;48.780;9.216;2023-06-24T14:37:27;27.80;52.60
1704;DHT22;849;48.780;9.216;2023-06-24T14:39:57;27.80;51.20
1704;DHT22;849;48.780;9.216;2023-06-24T14:42:28;27.90;50.70
1704;DHT22;849;48.780;9.216;2023-06-24T14:44:59;27.80;51.40
1704;DHT22;849;48.780;9.216;2023-06-24T14:47:30;27.70;53.10
1704;DHT22;849;48.780;9.216;2023-06-24T14:50:02;27.70;52.30
1704;DHT22;849;48.780;9.216;2023-06-24T14:52:34;27.60;51.70
1704;DHT22;849;48.780;9.216;2023-06-24T14:55:05;27.80;52.60
1704;DHT22;849;48.780;9.216;2023-06-24T14:57:37;27.80;52.10
1704;DHT22;849;48.780;9.216;2023-06-24T15:00:09;27.80;51.40
1704;DHT22;849;48.780;9.216;2023-06-24T15:02:41;27.80;52.00
1704;DHT22;849;48.780;9.216;2023-06-24T15:05:12;28.30;53.90
1704;DHT22;849;48.780;9.216;2023-06-24T15:07:43;28.20;51.10
1704;DHT22;849;48.780;9.216;2023-06-24T15:10:13;27.90;51.10
1704;DHT22;849;48.780;9.216;2023-06-24T15:12:44;27.70;51.10
1704;DHT22;849;48.780;9.216;2023-06-24T15:15:15;27.60;51.00
1704;DHT22;849;48.780;9.216;2023-06-24T15:17:46;28.00;52.80
1704;DHT22;849;48.780;9.216;2023-06-24T15:20:17;28.50;53.60
1704;DHT22;849;48.780;9.216;2023-06-24T15:22:47;28.90;53.20
1704;DHT22;849;48.780;9.216;2023-06-24T15:25:18;29.10;51.10
1704;DHT22;849;48.780;9.216;2023-06-24T15:27:49;29.40;50.40
1704;DHT22;849;48.780;9.216;2023-06-24T15:30:20;29.40;49.20
1704;DHT22;849;48.780;9.216;2023-06-24T15:32:51;29.20;50.20
1704;DHT22;849;48.780;9.216;2023-06-24T15:35:22;29.50;52.20
1704;DHT22;849;48.780;9.216;2023-06-24T15:37:52;29.70;50.50
1704;DHT22;849;48.780;9.216;2023-06-24T15:40:23;30.00;49.70
1704;DHT22;849;48.780;9.216;2023-06-24T15:42:54;30.40;47.60
1704;DHT22;849;48.780;9.216;2023-06-24T15:45:25;30.70;47.20
1704;DHT22;849;48.780;9.216;2023-06-24T15:47:57;30.80;47.00
1704;DHT22;849;48.780;9.216;2023-06-24T15:50:28;31.10;48.20
1704;DHT22;849;48.780;9.216;2023-06-24T15:52:59;31.20;48.00
1704;DHT22;849;48.780;9.216;2023-06-24T15:55:30;31.30;46.10
1704;DHT22;849;48.780;9.216;2023-06-24T15:58:00;31.10;46.50
1704;DHT22;849;48.780;9.216;2023-06-24T16:00:31;31.20;47.90
1704;DHT22;849;48.780;9.216;2023-06-24T16:03:02;31.20;46.10
1704;DHT22;849;48.780;9.216;2023-06-24T16:05:33;31.10;46.40
1704;DHT22;849;48.780;9.216;2023-06-24T16:08:04;31.20;46.30
1704;DHT22;849;48.780;9.216;2023-06-24T16:10:35;31.20;45.90
1704;DHT22;849;48.780;9.216;2023-06-24T16:13:05;31.20;46.20
1704;DHT22;849;48.780;9.216;2023-06-24T16:15:36;31.10;48.30
1704;DHT22;849;48.780;9.216;2023-06-24T16:18:07;31.40;48.00
1704;DHT22;849;48.780;9.216;2023-06-24T16:20:38;31.80;47.20
1704;DHT22;849;48.780;9.216;2023-06-24T16:23:09;32.00;46.60
1704;DHT22;849;48.780;9.216;2023-06-24T16:25:40;32.00;46.60
1704;DHT22;849;48.780;9.216;2023-06-24T16:28:11;32.20;46.60
1704;DHT22;849;48.780;9.216;2023-06-24T16:30:41;32.00;46.60
1704;DHT22;849;48.780;9.216;2023-06-24T16:33:12;32.20;48.30
1704;DHT22;849;48.780;9.216;2023-06-24T16:35:43;32.30;47.00
1704;DHT22;849;48.780;9.216;2023-06-24T16:38:14;32.40;46.80
1704;DHT22;849;48.780;9.216;2023-06-24T16:40:45;32.30;46.20
1704;DHT22;849;48.780;9.216;2023-06-24T16:43:15;32.20;44.40
1704;DHT22;849;48.780;9.216;2023-06-24T16:45:46;31.80;44.70
1704;DHT22;849;48.780;9.216;2023-06-24T16:48:17;31.60;43.90
1704;DHT22;849;48.780;9.216;2023-06-24T16:50:43;31.60;44.80
1704;DHT22;849;48.780;9.216;2023-06-24T16:53:14;31.50;45.00
1704;DHT22;849;48.780;9.216;2023-06-24T16:55:45;31.50;47.50